Terminal Aerodrome Forecast
Issued by NWS

Home | Current Version | Previous Version | Text Only | Print | Product List | Glossary On
Versions: 1 2 3 4 5 6 7 8 9 10 11 12 13 14 15 16
000
FTUS46 KMTR 270500
TAFSNS
TAF
KSNS 270524Z 2706/2806 28008KT 3SM BR BKN004
     FM270700 VRB03KT 1SM BR OVC002
     FM271200 12008KT P6SM SCT004
     FM271400 12012KT P6SM SKC
     FM271900 VRB03KT P6SM SKC
     FM280400 26007KT P6SM BKN008=

USA.gov is the U.S. government's official web portal to all federal, state and local government web resources and services.